• Join FlightAware (Why Join?)
  • Login
  • US Flag 
01:41PM EDT


 

Airport Tracker/Info


-or-


 

Live Flight TrackerFlight Track Log ✈ JUS327 ✈ 11-Apr-2013 ✈ KLIT - KBRO

Flight Track Log - Related Links

Times and Time Zones

All times are in EDT time to prevent confusion due to time zone crossing. See the JUS327 flight status page for this flight to view local times or setup timezone preferences in your user account.

Time Position Orientation Groundspeed Altitude Reporting Facility
EDT Latitude Longitude Course Direction KTS MPH feet Rate Location/Type
09:18AM 34.7347 -92.2222 68° East 145 167 900  Level Memphis Center
09:19AM 34.7500 -92.1769 68° East 202 232 3,000 2,340 Climbing Memphis Center
09:20AM 34.7239 -92.1183 118° Southeast 228 262 5,500 2,520 Climbing Memphis Center
09:21AM 34.6403 -92.1292 186° South 281 323 8,600 3,000 Climbing Memphis Center
09:22AM 34.5831 -92.1911 222° Southwest 273 314 11,700 2,700 Climbing Memphis Center
09:23AM 34.5172 -92.2603 221° Southwest 284 327 14,100 2,520 Climbing Memphis Center
09:24AM 34.4453 -92.3217 215° Southwest 305 351 16,800 2,100 Climbing Memphis Center
09:25AM 34.3633 -92.3650 204° Southwest 315 362 18,400 1,620 Climbing Memphis Center
09:26AM 34.2931 -92.4389 221° Southwest 328 377 20,100 1,560 Climbing Memphis Center
09:27AM 34.2131 -92.4947 210° Southwest 335 386 21,600 1,320 Climbing Memphis Center
09:28AM 34.1306 -92.5478 208° Southwest 340 391 22,800 1,200 Climbing Memphis Center
09:29AM 34.0481 -92.6083 211° Southwest 345 397 24,000 1,200 Climbing Memphis Center
09:30AM 33.9658 -92.6664 210° Southwest 345 397 25,300 900 Climbing Memphis Center
09:33AM 33.7736 -92.8033 211° Southwest 358 412 27,000 900 Climbing Fort Worth Center
09:34AM 33.6861 -92.8631 210° Southwest 369 425 28,200 1,260 Climbing Fort Worth Center
09:35AM 33.5967 -92.9275 211° Southwest 369 425 29,600 900 Climbing Fort Worth Center
09:36AM 33.5047 -92.9869 208° Southwest 374 430 30,000 180 Climbing Fort Worth Center
09:37AM 33.4175 -93.0558 213° Southwest 374 430 30,000  Level Fort Worth Center
09:38AM 33.3414 -93.1467 225° Southwest 384 442 30,000 -240 Level Fort Worth Center
09:39AM 33.2733 -93.2394 229° Southwest 384 442 29,600 -600 Descending Fort Worth Center
09:40AM 33.2056 -93.3294 228° Southwest 374 430 28,800 -840 Descending Fort Worth Center
09:41AM 33.1417 -93.4242 231° Southwest 369 425 28,000 -420 Descending Fort Worth Center
09:42AM 33.0897 -93.4983 230° Southwest 369 425 28,000  Level Fort Worth Center
09:43AM 33.0200 -93.6081 233° Southwest 369 425 28,000  Level Fort Worth Center
09:44AM 32.9542 -93.7050 231° Southwest 374 430 28,000  Level Fort Worth Center
09:45AM 32.8903 -93.8039 232° Southwest 379 436 28,000  Level Fort Worth Center
09:46AM 32.8261 -93.9031 232° Southwest 384 442 28,000  Level Fort Worth Center
09:47AM 32.7600 -94.0019 232° Southwest 384 442 28,000  Level Fort Worth Center
09:48AM 32.6958 -94.1031 233° Southwest 384 442 28,000  Level Fort Worth Center
09:49AM 32.6294 -94.1944 229° Southwest 379 436 28,000  Level Fort Worth Center
09:50AM 32.5544 -94.2808 224° Southwest 379 436 28,000  Level Fort Worth Center
09:51AM 32.4792 -94.3672 224° Southwest 379 436 28,000  Level Fort Worth Center
09:52AM 32.3997 -94.4461 220° Southwest 379 436 28,000  Level Fort Worth Center
09:53AM 32.3178 -94.5175 216° Southwest 379 436 28,000  Level Fort Worth Center
09:54AM 32.2383 -94.5939 219° Southwest 373 429 28,000  Level Fort Worth Center
09:55AM 32.1628 -94.6794 224° Southwest 373 429 28,000  Level Fort Worth Center
09:56AM 32.0872 -94.7578 221° Southwest 373 429 28,000  Level Fort Worth Center
09:57AM 32.0053 -94.8311 217° Southwest 373 429 28,000  Level Fort Worth Center
09:58AM 31.8772 -94.9481 218° Southwest 373 429 28,000  Level Houston Center
09:59AM 31.7783 -95.0378 218° Southwest 375 432 28,000  Level Houston Center
10:00AM 31.6953 -95.1147 218° Southwest 380 437 28,000 300 Level Houston Center
10:01AM 31.6125 -95.1922 219° Southwest 383 441 28,700 1,380 Climbing Houston Center
10:02AM 31.5322 -95.2711 220° Southwest 380 437 30,900 1,560 Climbing Houston Center
10:03AM 31.4556 -95.3442 219° Southwest 362 417 32,000 480 Climbing Houston Center
10:04AM 31.3756 -95.4161 218° Southwest 363 418 32,000  Level Houston Center
10:05AM 31.2792 -95.5039 218° Southwest 367 422 32,000  Level Houston Center
10:06AM 31.1997 -95.5761 218° Southwest 364 419 32,000  Level Houston Center
10:08AM 31.1158 -95.6433 214° Southwest 366 421 32,000 -60 Level Houston Center
10:09AM 31.0225 -95.6856 201° Southwest 360 414 31,900  Descending Houston Center
10:10AM 30.9233 -95.7100 192° South 365 420 32,000  Climbing Houston Center
10:11AM 30.8244 -95.7431 196° South 368 423 32,000 -60 Level Houston Center
10:12AM 30.7289 -95.7825 200° South 366 421 31,900  Descending Houston Center
10:13AM 30.6256 -95.8233 199° South 368 423 32,000  Climbing Houston Center
10:14AM 30.5283 -95.8592 198° South 367 422 32,000 -60 Level Houston Center
10:15AM 30.4308 -95.8914 196° South 367 422 31,900  Descending Houston Center
10:16AM 30.3139 -95.9342 198° South 368 423 32,000  Climbing Houston Center
10:17AM 30.2175 -95.9697 198° South 366 421 31,900  Descending Houston Center
10:18AM 30.1208 -96.0064 198° South 367 422 32,000  Climbing Houston Center
10:19AM 30.0283 -96.0375 196° South 369 425 31,900 -60 Descending Houston Center
10:20AM 29.9108 -96.0786 197° South 367 422 31,900  Level Houston Center
10:21AM 29.8142 -96.1122 197° South 363 418 31,900  Level Houston Center
10:22AM 29.7164 -96.1464 197° South 365 420 31,900  Level Houston Center
10:23AM 29.6192 -96.1808 197° South 363 418 31,900  Level Houston Center
10:24AM 29.5217 -96.2150 197° South 364 419 31,900  Level Houston Center
10:25AM 29.4236 -96.2483 196° South 365 420 31,900  Level Houston Center
10:26AM 29.3267 -96.2822 197° South 363 418 31,900  Level Houston Center
10:27AM 29.2300 -96.3156 197° South 362 417 31,900  Level Houston Center
10:28AM 29.1119 -96.3556 196° South 365 420 31,900  Level Houston Center
10:29AM 29.0142 -96.3892 197° South 365 420 31,900  Level Houston Center
10:30AM 28.9161 -96.4233 197° South 366 421 31,900  Level Houston Center
10:31AM 28.8183 -96.4575 197° South 367 422 31,900  Level Houston Center
10:32AM 28.7194 -96.4911 197° South 368 423 31,900  Level Houston Center
10:33AM 28.6206 -96.5244 196° South 369 425 31,900  Level Houston Center
10:34AM 28.5222 -96.5583 197° South 369 425 31,900  Level Houston Center
10:35AM 28.4033 -96.5992 197° South 370 426 31,900  Level Houston Center
10:36AM 28.3058 -96.6322 197° South 367 422 31,900  Level Houston Center
10:37AM 28.2067 -96.6642 196° South 369 425 31,900  Level Houston Center
10:38AM 28.1081 -96.6975 197° South 368 423 31,900  Level Houston Center
10:39AM 28.0097 -96.7317 197° South 370 426 31,900  Level Houston Center
10:40AM 27.9111 -96.7664 197° South 369 425 31,900  Level Houston Center
10:42AM 27.8125 -96.7972 195° South 369 425 31,900  Level Houston Center
10:43AM 27.6942 -96.8372 197° South 370 426 31,900  Level Houston Center
10:44AM 27.5956 -96.8711 197° South 370 426 31,900  Level Houston Center
10:45AM 27.4964 -96.9050 197° South 370 426 31,900  Level Houston Center
10:46AM 27.4031 -96.9356 196° South 370 426 31,900  Level Houston Center
10:47AM 27.2831 -96.9747 196° South 372 428 31,900  Level Houston Center
10:48AM 27.1836 -97.0089 197° South 373 429 31,900 -300 Level Houston Center
10:49AM 27.0836 -97.0411 196° South 373 429 31,400 -1,560 Descending Houston Center
10:50AM 26.9867 -97.0728 196° South 367 422 28,700 -3,360 Descending Houston Center
10:51AM 26.8953 -97.1061 198° South 353 406 24,500 -4,560 Descending Houston Center
10:51AM 26.8397 -97.1272 199° South 354 407 21,900 -4,200 Descending Houston Center
10:52AM 26.8008 -97.1408 197° South 354 407 20,200 -3,900 Descending Houston Center
10:53AM 26.7061 -97.1739 197° South 350 403 16,400 -3,720 Descending Houston Center
10:54AM 26.6067 -97.1692 178° South 333 383 12,900 -2,760 Descending Houston Center
10:55AM 26.4989 -97.1653 178° South 336 387 10,300 -2,040 Descending Houston Center
10:56AM 26.4342 -97.1719 185° South 293 337 8,900 -1,860 Descending Houston Center
10:57AM 26.3614 -97.1797 185° South 279 321 7,000 -1,620 Descending Houston Center
10:57AM 26.3419 -97.1811 184° South 286 329 7,000 -1,620 Level Houston Center
10:58AM 26.2886 -97.1872 186° South 271 312 5,400 -420 Descending Houston Center
10:58AM 26.2758 -97.1864 177° South 282 325 6,600 -1,920 Climbing Houston Center
10:59AM 26.2058 -97.2011 191° South 273 314 3,500 -2,100 Descending Houston Center
11:00AM 26.1292 -97.2117 187° South 278 320 3,000 -300 Descending Houston Center
11:01AM 26.0592 -97.2258 190° South 265 305 3,000  Level Houston Center
11:02AM 25.9931 -97.2372 189° South 244 281 3,000  Level Houston Center
11:03AM 25.9269 -97.2486 189° South 239 275 3,000  Level Houston Center
11:04AM 25.8506 -97.2614 189° South 241 277 3,000 -480 Level Houston Center
11:06AM 25.9000 -97.4167 210° Southwest  Level FlightAware Approximate
11:07AM 25.8486 -97.3758 210° Southwest 169 194 1,100  Level Houston Center
11:09AM 25.9068 -97.4258 322° Northwest  Level Estimated